sensor_id;sensor_type;location;lat;lon;timestamp;pressure;altitude;pressure_sealevel;temperature;humidity
71772;BME280;59606;52.138;5.424;2023-05-03T00:01:17;103120.47;;;6.94;71.75
71772;BME280;59606;52.138;5.424;2023-05-03T00:03:44;103117.91;;;6.89;71.94
71772;BME280;59606;52.138;5.424;2023-05-03T00:06:14;103104.94;;;6.83;72.05
71772;BME280;59606;52.138;5.424;2023-05-03T00:08:41;103106.69;;;6.82;72.34
71772;BME280;59606;52.138;5.424;2023-05-03T00:11:08;103103.22;;;6.80;71.95
71772;BME280;59606;52.138;5.424;2023-05-03T00:13:35;103113.59;;;6.80;72.06
71772;BME280;59606;52.138;5.424;2023-05-03T00:16:02;103109.31;;;6.78;72.02
71772;BME280;59606;52.138;5.424;2023-05-03T00:18:29;103107.56;;;6.74;72.35
71772;BME280;59606;52.138;5.424;2023-05-03T00:20:57;103109.28;;;6.70;72.29
71772;BME280;59606;52.138;5.424;2023-05-03T00:23:25;103112.75;;;6.66;72.45
71772;BME280;59606;52.138;5.424;2023-05-03T00:25:54;103112.78;;;6.65;72.66
71772;BME280;59606;52.138;5.424;2023-05-03T00:28:22;103111.94;;;6.61;72.83
71772;BME280;59606;52.138;5.424;2023-05-03T00:30:48;103114.50;;;6.61;72.89
71772;BME280;59606;52.138;5.424;2023-05-03T00:33:15;103117.97;;;6.58;72.77
71772;BME280;59606;52.138;5.424;2023-05-03T00:35:43;103116.25;;;6.54;72.79
71772;BME280;59606;52.138;5.424;2023-05-03T00:38:10;103117.97;;;6.48;72.78
71772;BME280;59606;52.138;5.424;2023-05-03T00:40:36;103118.84;;;6.42;73.08
71772;BME280;59606;52.138;5.424;2023-05-03T00:43:03;103114.53;;;6.36;73.12
71772;BME280;59606;52.138;5.424;2023-05-03T00:45:32;103112.81;;;6.31;73.41
71772;BME280;59606;52.138;5.424;2023-05-03T00:47:59;103111.06;;;6.27;73.61
71772;BME280;59606;52.138;5.424;2023-05-03T00:50:27;103108.47;;;6.27;73.77
71772;BME280;59606;52.138;5.424;2023-05-03T00:52:54;103104.19;;;6.24;73.12
71772;BME280;59606;52.138;5.424;2023-05-03T00:55:21;103107.63;;;6.22;73.52
71772;BME280;59606;52.138;5.424;2023-05-03T00:57:48;103111.94;;;6.18;73.75
71772;BME280;59606;52.138;5.424;2023-05-03T01:00:15;103108.50;;;6.16;73.67
71772;BME280;59606;52.138;5.424;2023-05-03T01:02:43;103113.69;;;6.11;73.46
71772;BME280;59606;52.138;5.424;2023-05-03T01:05:09;103105.03;;;6.06;73.58
71772;BME280;59606;52.138;5.424;2023-05-03T01:07:50;103113.66;;;6.02;73.89
71772;BME280;59606;52.138;5.424;2023-05-03T01:12:59;103106.75;;;5.95;74.20
71772;BME280;59606;52.138;5.424;2023-05-03T01:18:27;103108.47;;;5.87;74.58
71772;BME280;59606;52.138;5.424;2023-05-03T01:20:58;103116.22;;;5.84;75.00
71772;BME280;59606;52.138;5.424;2023-05-03T01:23:59;103104.13;;;5.81;74.49
71772;BME280;59606;52.138;5.424;2023-05-03T01:26:28;103111.03;;;5.78;75.35
71772;BME280;59606;52.138;5.424;2023-05-03T01:28:55;103116.16;;;5.76;75.48
71772;BME280;59606;52.138;5.424;2023-05-03T01:31:33;103105.81;;;5.73;75.55
71772;BME280;59606;52.138;5.424;2023-05-03T01:36:43;103109.25;;;5.69;75.57
71772;BME280;59606;52.138;5.424;2023-05-03T01:39:15;103098.94;;;5.67;75.38
71772;BME280;59606;52.138;5.424;2023-05-03T01:41:43;103108.41;;;5.65;75.68
71772;BME280;59606;52.138;5.424;2023-05-03T01:44:11;103103.22;;;5.62;75.93
71772;BME280;59606;52.138;5.424;2023-05-03T01:46:45;103102.38;;;5.63;75.81
71772;BME280;59606;52.138;5.424;2023-05-03T01:49:11;103097.19;;;5.65;76.21
71772;BME280;59606;52.138;5.424;2023-05-03T01:51:38;103110.97;;;5.65;75.55
71772;BME280;59606;52.138;5.424;2023-05-03T01:54:05;103103.22;;;5.61;75.66
71772;BME280;59606;52.138;5.424;2023-05-03T01:56:33;103100.63;;;5.58;75.66
71772;BME280;59606;52.138;5.424;2023-05-03T01:59:00;103111.84;;;5.57;76.12
71772;BME280;59606;52.138;5.424;2023-05-03T02:01:26;103104.91;;;5.53;76.50
71772;BME280;59606;52.138;5.424;2023-05-03T02:03:53;103099.72;;;5.50;75.80
71772;BME280;59606;52.138;5.424;2023-05-03T02:06:20;103102.34;;;5.47;76.63
71772;BME280;59606;52.138;5.424;2023-05-03T02:08:46;103100.59;;;5.46;76.23
71772;BME280;59606;52.138;5.424;2023-05-03T02:11:13;103098.88;;;5.40;76.68
71772;BME280;59606;52.138;5.424;2023-05-03T02:13:39;103099.72;;;5.37;76.68
71772;BME280;59606;52.138;5.424;2023-05-03T02:16:06;103098.81;;;5.32;76.69
71772;BME280;59606;52.138;5.424;2023-05-03T02:18:32;103092.78;;;5.29;76.63
71772;BME280;59606;52.138;5.424;2023-05-03T02:21:00;103091.06;;;5.25;76.60
71772;BME280;59606;52.138;5.424;2023-05-03T02:23:27;103088.44;;;5.22;76.71
71772;BME280;59606;52.138;5.424;2023-05-03T02:25:53;103093.59;;;5.18;76.84
71772;BME280;59606;52.138;5.424;2023-05-03T02:28:20;103086.69;;;5.14;76.90
71772;BME280;59606;52.138;5.424;2023-05-03T02:30:46;103084.09;;;5.13;77.00
71772;BME280;59606;52.138;5.424;2023-05-03T02:33:13;103079.81;;;5.10;76.75
71772;BME280;59606;52.138;5.424;2023-05-03T02:35:39;103084.97;;;5.07;77.00
71772;BME280;59606;52.138;5.424;2023-05-03T02:38:06;103076.31;;;5.02;77.33
71772;BME280;59606;52.138;5.424;2023-05-03T02:40:32;103073.72;;;4.99;77.29
71772;BME280;59606;52.138;5.424;2023-05-03T02:42:59;103070.28;;;4.99;77.28
71772;BME280;59606;52.138;5.424;2023-05-03T02:45:25;103066.84;;;4.96;77.08
71772;BME280;59606;52.138;5.424;2023-05-03T02:47:52;103065.09;;;4.94;77.03
71772;BME280;59606;52.138;5.424;2023-05-03T02:50:19;103059.94;;;4.94;77.27
71772;BME280;59606;52.138;5.424;2023-05-03T02:52:45;103059.06;;;4.93;77.45
71772;BME280;59606;52.138;5.424;2023-05-03T02:55:12;103062.50;;;4.91;77.80
71772;BME280;59606;52.138;5.424;2023-05-03T02:57:38;103067.63;;;4.89;77.62
71772;BME280;59606;52.138;5.424;2023-05-03T03:00:08;103059.06;;;4.90;78.06
71772;BME280;59606;52.138;5.424;2023-05-03T03:02:36;103059.03;;;4.87;78.16
71772;BME280;59606;52.138;5.424;2023-05-03T03:05:02;103062.50;;;4.86;77.48
71772;BME280;59606;52.138;5.424;2023-05-03T03:07:29;103065.88;;;4.82;77.99
71772;BME280;59606;52.138;5.424;2023-05-03T03:09:56;103073.59;;;4.79;77.84
71772;BME280;59606;52.138;5.424;2023-05-03T03:12:22;103071.88;;;4.73;77.93
71772;BME280;59606;52.138;5.424;2023-05-03T03:14:49;103077.88;;;4.69;77.77
71772;BME280;59606;52.138;5.424;2023-05-03T03:17:15;103088.16;;;4.65;78.45
71772;BME280;59606;52.138;5.424;2023-05-03T03:19:42;103085.56;;;4.60;78.41
71772;BME280;59606;52.138;5.424;2023-05-03T03:22:08;103087.28;;;4.57;78.88
71772;BME280;59606;52.138;5.424;2023-05-03T03:24:34;103082.06;;;4.52;78.89
71772;BME280;59606;52.138;5.424;2023-05-03T03:27:01;103086.34;;;4.47;78.77
71772;BME280;59606;52.138;5.424;2023-05-03T03:29:30;103083.72;;;4.42;78.92
71772;BME280;59606;52.138;5.424;2023-05-03T03:31:57;103077.69;;;4.42;78.91
71772;BME280;59606;52.138;5.424;2023-05-03T03:34:23;103080.25;;;4.37;78.44
71772;BME280;59606;52.138;5.424;2023-05-03T03:36:50;103083.66;;;4.35;79.22
71772;BME280;59606;52.138;5.424;2023-05-03T03:39:17;103090.56;;;4.33;79.04
71772;BME280;59606;52.138;5.424;2023-05-03T03:41:43;103084.47;;;4.28;79.33
71772;BME280;59606;52.138;5.424;2023-05-03T03:44:10;103087.91;;;4.25;79.15
71772;BME280;59606;52.138;5.424;2023-05-03T03:46:36;103087.00;;;4.21;79.34
71772;BME280;59606;52.138;5.424;2023-05-03T03:49:03;103091.31;;;4.19;79.92
71772;BME280;59606;52.138;5.424;2023-05-03T03:51:29;103091.25;;;4.15;79.64
71772;BME280;59606;52.138;5.424;2023-05-03T03:53:56;103095.56;;;4.14;79.73
71772;BME280;59606;52.138;5.424;2023-05-03T03:56:22;103095.56;;;4.13;79.93
71772;BME280;59606;52.138;5.424;2023-05-03T03:58:50;103097.25;;;4.11;79.48
71772;BME280;59606;52.138;5.424;2023-05-03T04:01:16;103094.66;;;4.09;79.33
71772;BME280;59606;52.138;5.424;2023-05-03T04:03:46;103105.81;;;4.08;79.85
71772;BME280;59606;52.138;5.424;2023-05-03T04:06:13;103101.47;;;4.06;80.09
71772;BME280;59606;52.138;5.424;2023-05-03T04:08:39;103105.78;;;4.04;79.89
71772;BME280;59606;52.138;5.424;2023-05-03T04:11:09;103103.19;;;4.00;79.65
71772;BME280;59606;52.138;5.424;2023-05-03T04:13:37;103102.31;;;4.00;80.03
71772;BME280;59606;52.138;5.424;2023-05-03T04:16:05;103098.84;;;3.98;79.63
71772;BME280;59606;52.138;5.424;2023-05-03T04:18:31;103102.28;;;3.98;80.03
71772;BME280;59606;52.138;5.424;2023-05-03T04:20:58;103100.56;;;3.96;79.86
71772;BME280;59606;52.138;5.424;2023-05-03T04:23:24;103109.13;;;3.95;79.74
71772;BME280;59606;52.138;5.424;2023-05-03T04:25:51;103111.72;;;3.93;80.01
71772;BME280;59606;52.138;5.424;2023-05-03T04:28:17;103116.88;;;3.93;80.16
71772;BME280;59606;52.138;5.424;2023-05-03T04:30:45;103124.59;;;3.93;80.54
71772;BME280;59606;52.138;5.424;2023-05-03T04:33:12;103127.19;;;3.93;80.61
71772;BME280;59606;52.138;5.424;2023-05-03T04:35:39;103128.94;;;3.96;80.75
71772;BME280;59606;52.138;5.424;2023-05-03T04:38:06;103139.25;;;3.97;80.51
71772;BME280;59606;52.138;5.424;2023-05-03T04:40:34;103139.28;;;4.00;81.01
71772;BME280;59606;52.138;5.424;2023-05-03T04:43:00;103143.56;;;4.01;80.95
71772;BME280;59606;52.138;5.424;2023-05-03T04:45:27;103151.34;;;4.05;80.86
71772;BME280;59606;52.138;5.424;2023-05-03T04:47:53;103148.78;;;4.05;81.11
71772;BME280;59606;52.138;5.424;2023-05-03T04:50:20;103145.38;;;4.07;81.35
71772;BME280;59606;52.138;5.424;2023-05-03T04:52:46;103152.28;;;4.10;80.71
71772;BME280;59606;52.138;5.424;2023-05-03T04:55:13;103147.97;;;4.10;81.18
71772;BME280;59606;52.138;5.424;2023-05-03T04:57:39;103153.13;;;4.12;81.27
71772;BME280;59606;52.138;5.424;2023-05-03T05:00:06;103148.03;;;4.16;80.62
71772;BME280;59606;52.138;5.424;2023-05-03T05:02:37;103148.91;;;4.18;80.92
71772;BME280;59606;52.138;5.424;2023-05-03T05:05:04;103148.94;;;4.23;80.54
71772;BME280;59606;52.138;5.424;2023-05-03T05:07:30;103139.53;;;4.27;81.06
71772;BME280;59606;52.138;5.424;2023-05-03T05:09:57;103147.31;;;4.33;81.39
71772;BME280;59606;52.138;5.424;2023-05-03T05:12:23;103151.69;;;4.41;81.57
71772;BME280;59606;52.138;5.424;2023-05-03T05:14:50;103144.84;;;4.48;81.34
71772;BME280;59606;52.138;5.424;2023-05-03T05:17:16;103152.66;;;4.59;81.76
71772;BME280;59606;52.138;5.424;2023-05-03T05:19:43;103151.88;;;4.69;81.45
71772;BME280;59606;52.138;5.424;2023-05-03T05:22:09;103151.09;;;4.79;81.30
71772;BME280;59606;52.138;5.424;2023-05-03T05:24:36;103166.69;;;4.93;81.47
71772;BME280;59606;52.138;5.424;2023-05-03T05:27:02;103156.47;;;5.10;81.58
71772;BME280;59606;52.138;5.424;2023-05-03T05:29:29;103148.81;;;5.36;80.96
71772;BME280;59606;52.138;5.424;2023-05-03T05:31:56;103155.00;;;5.78;80.17
71772;BME280;59606;52.138;5.424;2023-05-03T05:34:22;103161.97;;;6.43;78.08
71772;BME280;59606;52.138;5.424;2023-05-03T05:36:49;103160.13;;;7.23;75.67
71772;BME280;59606;52.138;5.424;2023-05-03T05:39:17;103151.03;;;8.09;73.14
71772;BME280;59606;52.138;5.424;2023-05-03T05:41:44;103150.09;;;9.08;69.88
71772;BME280;59606;52.138;5.424;2023-05-03T05:44:10;103145.63;;;9.87;66.01
71772;BME280;59606;52.138;5.424;2023-05-03T05:46:38;103147.22;;;10.52;64.31
71772;BME280;59606;52.138;5.424;2023-05-03T05:49:05;103139.56;;;10.91;62.52
71772;BME280;59606;52.138;5.424;2023-05-03T05:51:32;103146.38;;;10.96;62.08
71772;BME280;59606;52.138;5.424;2023-05-03T05:53:58;103137.25;;;11.19;61.29
71772;BME280;59606;52.138;5.424;2023-05-03T05:56:25;103142.56;;;11.14;59.50
71772;BME280;59606;52.138;5.424;2023-05-03T05:58:51;103145.06;;;10.75;60.13
71772;BME280;59606;52.138;5.424;2023-05-03T06:01:18;103147.13;;;10.02;61.40
71772;BME280;59606;52.138;5.424;2023-05-03T06:03:44;103145.72;;;9.13;63.56
71772;BME280;59606;52.138;5.424;2023-05-03T06:06:11;103153.47;;;8.27;66.26
71772;BME280;59606;52.138;5.424;2023-05-03T06:08:38;103157.31;;;7.68;67.26
71772;BME280;59606;52.138;5.424;2023-05-03T06:11:04;103168.69;;;7.38;69.29
71772;BME280;59606;52.138;5.424;2023-05-03T06:13:31;103164.44;;;7.23;70.79
71772;BME280;59606;52.138;5.424;2023-05-03T06:15:59;103167.94;;;7.16;71.21
71772;BME280;59606;52.138;5.424;2023-05-03T06:18:26;103171.41;;;7.12;70.86
71772;BME280;59606;52.138;5.424;2023-05-03T06:20:52;103170.56;;;7.05;71.40
71772;BME280;59606;52.138;5.424;2023-05-03T06:23:19;103173.16;;;7.08;71.53
71772;BME280;59606;52.138;5.424;2023-05-03T06:25:45;103170.50;;;7.19;72.99
71772;BME280;59606;52.138;5.424;2023-05-03T06:28:13;103167.84;;;7.34;71.94
71772;BME280;59606;52.138;5.424;2023-05-03T06:30:39;103154.00;;;7.40;72.23
71772;BME280;59606;52.138;5.424;2023-05-03T06:33:06;103147.03;;;7.51;71.98
71772;BME280;59606;52.138;5.424;2023-05-03T06:35:33;103141.81;;;7.57;71.59
71772;BME280;59606;52.138;5.424;2023-05-03T06:37:59;103147.00;;;7.60;70.86
71772;BME280;59606;52.138;5.424;2023-05-03T06:40:26;103140.88;;;7.67;72.01
71772;BME280;59606;52.138;5.424;2023-05-03T06:42:53;103149.50;;;7.75;70.57
71772;BME280;59606;52.138;5.424;2023-05-03T06:45:19;103146.06;;;7.75;70.94
71772;BME280;59606;52.138;5.424;2023-05-03T06:47:46;103145.19;;;7.76;71.01
71772;BME280;59606;52.138;5.424;2023-05-03T06:50:12;103143.38;;;7.84;70.66
71772;BME280;59606;52.138;5.424;2023-05-03T06:52:39;103141.63;;;7.92;70.66
71772;BME280;59606;52.138;5.424;2023-05-03T06:55:06;103144.16;;;8.00;70.43
71772;BME280;59606;52.138;5.424;2023-05-03T06:57:33;103145.03;;;7.99;69.37
71772;BME280;59606;52.138;5.424;2023-05-03T07:00:00;103138.97;;;8.01;69.87
71772;BME280;59606;52.138;5.424;2023-05-03T07:02:26;103143.25;;;8.09;68.32
71772;BME280;59606;52.138;5.424;2023-05-03T07:04:53;103137.19;;;8.08;68.60
71772;BME280;59606;52.138;5.424;2023-05-03T07:07:19;103132.78;;;8.16;68.22
71772;BME280;59606;52.138;5.424;2023-05-03T07:09:46;103133.59;;;8.21;68.31
71772;BME280;59606;52.138;5.424;2023-05-03T07:12:13;103130.94;;;8.31;68.15
71772;BME280;59606;52.138;5.424;2023-05-03T07:14:39;103132.69;;;8.32;67.01
71772;BME280;59606;52.138;5.424;2023-05-03T07:17:06;103128.28;;;8.37;67.45
71772;BME280;59606;52.138;5.424;2023-05-03T07:19:33;103126.50;;;8.46;66.31
71772;BME280;59606;52.138;5.424;2023-05-03T07:21:59;103123.03;;;8.49;65.29
71772;BME280;59606;52.138;5.424;2023-05-03T07:24:28;103123.84;;;8.53;65.84
71772;BME280;59606;52.138;5.424;2023-05-03T07:26:55;103122.06;;;8.59;65.62
71772;BME280;59606;52.138;5.424;2023-05-03T07:29:22;103113.25;;;8.71;65.85
71772;BME280;59606;52.138;5.424;2023-05-03T07:31:49;103108.00;;;8.77;65.15
71772;BME280;59606;52.138;5.424;2023-05-03T07:34:18;103104.47;;;8.84;65.23
71772;BME280;59606;52.138;5.424;2023-05-03T07:36:45;103100.03;;;8.95;65.18
71772;BME280;59606;52.138;5.424;2023-05-03T07:39:11;103100.75;;;9.05;64.94
71772;BME280;59606;52.138;5.424;2023-05-03T07:41:38;103090.31;;;9.08;64.58
71772;BME280;59606;52.138;5.424;2023-05-03T07:44:04;103092.84;;;9.14;64.41
71772;BME280;59606;52.138;5.424;2023-05-03T07:46:31;103089.41;;;9.12;63.95
71772;BME280;59606;52.138;5.424;2023-05-03T07:49:01;103088.50;;;9.15;63.37
71772;BME280;59606;52.138;5.424;2023-05-03T07:51:28;103077.09;;;9.27;63.72
71772;BME280;59606;52.138;5.424;2023-05-03T07:53:55;103077.81;;;9.36;63.24
71772;BME280;59606;52.138;5.424;2023-05-03T07:56:22;103086.44;;;9.38;62.59
71772;BME280;59606;52.138;5.424;2023-05-03T07:58:48;103079.41;;;9.45;62.91
71772;BME280;59606;52.138;5.424;2023-05-03T08:01:30;103080.19;;;9.52;62.66
71772;BME280;59606;52.138;5.424;2023-05-03T08:03:58;103080.09;;;9.59;62.56
71772;BME280;59606;52.138;5.424;2023-05-03T08:06:25;103072.13;;;9.70;62.42
71772;BME280;59606;52.138;5.424;2023-05-03T08:08:53;103076.34;;;9.77;61.78
71772;BME280;59606;52.138;5.424;2023-05-03T08:11:20;103080.63;;;9.83;61.27
71772;BME280;59606;52.138;5.424;2023-05-03T08:13:46;103082.16;;;9.95;60.87
71772;BME280;59606;52.138;5.424;2023-05-03T08:16:18;103081.22;;;9.99;61.38
71772;BME280;59606;52.138;5.424;2023-05-03T08:18:45;103080.31;;;10.01;59.92
71772;BME280;59606;52.138;5.424;2023-05-03T08:21:12;103072.47;;;10.03;59.63
71772;BME280;59606;52.138;5.424;2023-05-03T08:23:40;103069.03;;;10.01;59.83
71772;BME280;59606;52.138;5.424;2023-05-03T08:26:06;103077.59;;;10.07;59.66
71772;BME280;59606;52.138;5.424;2023-05-03T08:28:34;103062.72;;;10.14;60.12
71772;BME280;59606;52.138;5.424;2023-05-03T08:31:01;103054.69;;;10.28;59.95
71772;BME280;59606;52.138;5.424;2023-05-03T08:33:30;103042.41;;;10.34;59.66
71772;BME280;59606;52.138;5.424;2023-05-03T08:35:57;103040.66;;;10.35;58.51
71772;BME280;59606;52.138;5.424;2023-05-03T08:38:23;103045.03;;;10.34;58.28
71772;BME280;59606;52.138;5.424;2023-05-03T08:40:50;103051.84;;;10.42;58.87
71772;BME280;59606;52.138;5.424;2023-05-03T08:43:19;103047.38;;;10.50;57.91
71772;BME280;59606;52.138;5.424;2023-05-03T08:45:47;103048.91;;;10.60;57.30
71772;BME280;59606;52.138;5.424;2023-05-03T08:48:13;103060.94;;;10.66;57.27
71772;BME280;59606;52.138;5.424;2023-05-03T08:50:40;103056.56;;;10.66;56.95
71772;BME280;59606;52.138;5.424;2023-05-03T08:53:08;103069.59;;;10.66;57.01
71772;BME280;59606;52.138;5.424;2023-05-03T08:55:36;103066.94;;;10.71;56.63
71772;BME280;59606;52.138;5.424;2023-05-03T08:58:06;103068.75;;;10.66;56.39
71772;BME280;59606;52.138;5.424;2023-05-03T09:00:35;103069.69;;;10.63;56.16
71772;BME280;59606;52.138;5.424;2023-05-03T09:03:02;103068.69;;;10.70;56.74
71772;BME280;59606;52.138;5.424;2023-05-03T09:05:30;103066.81;;;10.77;56.17
71772;BME280;59606;52.138;5.424;2023-05-03T09:10:31;103081.34;;;10.89;56.75
71772;BME280;59606;52.138;5.424;2023-05-03T09:13:00;103073.28;;;11.01;56.49
71772;BME280;59606;52.138;5.424;2023-05-03T09:15:30;103072.00;;;11.20;56.61
71772;BME280;59606;52.138;5.424;2023-05-03T09:20:37;103066.31;;;11.42;56.24
71772;BME280;59606;52.138;5.424;2023-05-03T09:23:08;103066.16;;;11.48;55.12
71772;BME280;59606;52.138;5.424;2023-05-03T09:25:49;103079.16;;;11.49;55.99
71772;BME280;59606;52.138;5.424;2023-05-03T09:28:17;103073.94;;;11.51;55.95
71772;BME280;59606;52.138;5.424;2023-05-03T09:30:46;103064.22;;;11.57;55.43
71772;BME280;59606;52.138;5.424;2023-05-03T09:33:13;103064.09;;;11.62;55.86
71772;BME280;59606;52.138;5.424;2023-05-03T09:35:56;103074.41;;;11.68;55.42
71772;BME280;59606;52.138;5.424;2023-05-03T09:38:29;103069.19;;;11.67;55.20
71772;BME280;59606;52.138;5.424;2023-05-03T09:40:55;103076.34;;;11.59;55.53
71772;BME280;59606;52.138;5.424;2023-05-03T09:43:23;103077.97;;;11.64;54.83
71772;BME280;59606;52.138;5.424;2023-05-03T09:45:49;103077.75;;;11.73;55.23
71772;BME280;59606;52.138;5.424;2023-05-03T09:48:16;103067.09;;;11.84;55.96
71772;BME280;59606;52.138;5.424;2023-05-03T09:50:44;103062.44;;;11.95;55.14
71772;BME280;59606;52.138;5.424;2023-05-03T09:53:10;103068.31;;;12.05;54.74
71772;BME280;59606;52.138;5.424;2023-05-03T09:55:39;103068.00;;;12.17;54.38
71772;BME280;59606;52.138;5.424;2023-05-03T09:58:06;103071.22;;;12.27;53.98
71772;BME280;59606;52.138;5.424;2023-05-03T10:00:40;103068.50;;;12.32;53.88
71772;BME280;59606;52.138;5.424;2023-05-03T10:03:12;103070.06;;;12.37;53.02
71772;BME280;59606;52.138;5.424;2023-05-03T10:05:47;103072.78;;;12.34;52.17
71772;BME280;59606;52.138;5.424;2023-05-03T10:08:25;103063.88;;;12.41;52.43
71772;BME280;59606;52.138;5.424;2023-05-03T10:10:53;103051.75;;;12.39;52.97
71772;BME280;59606;52.138;5.424;2023-05-03T10:13:21;103051.44;;;12.49;52.60
71772;BME280;59606;52.138;5.424;2023-05-03T10:15:57;103054.75;;;12.56;51.94
71772;BME280;59606;52.138;5.424;2023-05-03T10:18:30;103046.81;;;12.59;51.98
71772;BME280;59606;52.138;5.424;2023-05-03T10:21:03;103037.31;;;12.57;52.34
71772;BME280;59606;52.138;5.424;2023-05-03T10:23:32;103033.03;;;12.54;51.57
71772;BME280;59606;52.138;5.424;2023-05-03T10:28:32;103019.88;;;12.87;52.14
71772;BME280;59606;52.138;5.424;2023-05-03T10:30:58;103022.47;;;12.88;51.25
71772;BME280;59606;52.138;5.424;2023-05-03T10:33:32;103024.94;;;12.93;50.60
71772;BME280;59606;52.138;5.424;2023-05-03T10:36:06;103025.69;;;12.96;51.32
71772;BME280;59606;52.138;5.424;2023-05-03T10:38:32;103028.06;;;13.04;50.14
71772;BME280;59606;52.138;5.424;2023-05-03T10:40:59;103026.25;;;13.08;50.17
71772;BME280;59606;52.138;5.424;2023-05-03T10:46:00;103025.53;;;13.31;50.08
71772;BME280;59606;52.138;5.424;2023-05-03T10:48:27;103026.38;;;13.33;49.83
71772;BME280;59606;52.138;5.424;2023-05-03T10:50:55;103029.91;;;13.32;49.29
71772;BME280;59606;52.138;5.424;2023-05-03T10:56:11;103019.75;;;13.49;48.31
71772;BME280;59606;52.138;5.424;2023-05-03T10:58:42;103023.97;;;13.53;49.29
71772;BME280;59606;52.138;5.424;2023-05-03T11:01:11;103019.75;;;13.49;48.74
71772;BME280;59606;52.138;5.424;2023-05-03T11:03:50;103015.25;;;13.53;48.95
71772;BME280;59606;52.138;5.424;2023-05-03T11:06:46;103016.84;;;13.58;48.85
71772;BME280;59606;52.138;5.424;2023-05-03T11:09:16;103009.56;;;13.66;48.34
71772;BME280;59606;52.138;5.424;2023-05-03T11:11:43;103007.03;;;13.65;48.86
71772;BME280;59606;52.138;5.424;2023-05-03T11:14:10;103010.31;;;13.70;48.81
71772;BME280;59606;52.138;5.424;2023-05-03T11:16:39;103003.78;;;13.83;48.98
71772;BME280;59606;52.138;5.424;2023-05-03T11:19:13;102991.38;;;13.88;48.53
71772;BME280;59606;52.138;5.424;2023-05-03T11:21:41;102997.47;;;13.89;48.62
71772;BME280;59606;52.138;5.424;2023-05-03T11:24:08;102989.72;;;13.86;47.89
71772;BME280;59606;52.138;5.424;2023-05-03T11:26:36;102981.69;;;13.90;47.67
71772;BME280;59606;52.138;5.424;2023-05-03T11:29:03;102971.84;;;13.97;48.50
71772;BME280;59606;52.138;5.424;2023-05-03T11:31:30;102979.22;;;14.11;47.98
71772;BME280;59606;52.138;5.424;2023-05-03T11:33:58;102970.31;;;14.15;46.58
71772;BME280;59606;52.138;5.424;2023-05-03T11:36:24;102978.09;;;14.18;47.49
71772;BME280;59606;52.138;5.424;2023-05-03T11:38:52;102969.06;;;14.27;46.93
71772;BME280;59606;52.138;5.424;2023-05-03T11:41:18;102964.63;;;14.29;47.20
71772;BME280;59606;52.138;5.424;2023-05-03T11:43:46;102965.19;;;14.37;47.86
71772;BME280;59606;52.138;5.424;2023-05-03T11:46:24;102960.63;;;14.42;47.47
71772;BME280;59606;52.138;5.424;2023-05-03T11:48:52;102955.06;;;14.51;46.59
71772;BME280;59606;52.138;5.424;2023-05-03T11:51:22;102953.06;;;14.58;46.00
71772;BME280;59606;52.138;5.424;2023-05-03T11:53:50;102951.44;;;14.55;45.98
71772;BME280;59606;52.138;5.424;2023-05-03T11:56:17;102953.00;;;14.59;46.33
71772;BME280;59606;52.138;5.424;2023-05-03T11:58:52;102943.06;;;14.68;46.29
71772;BME280;59606;52.138;5.424;2023-05-03T12:01:23;102947.25;;;14.73;46.27
71772;BME280;59606;52.138;5.424;2023-05-03T12:03:56;102945.66;;;14.69;46.25
71772;BME280;59606;52.138;5.424;2023-05-03T12:06:23;102944.38;;;14.79;46.21
71772;BME280;59606;52.138;5.424;2023-05-03T12:08:50;102943.84;;;14.93;44.71
71772;BME280;59606;52.138;5.424;2023-05-03T12:11:18;102929.66;;;14.97;44.72
71772;BME280;59606;52.138;5.424;2023-05-03T12:14:01;102926.81;;;15.03;44.74
71772;BME280;59606;52.138;5.424;2023-05-03T12:16:45;102929.91;;;15.13;45.78
71772;BME280;59606;52.138;5.424;2023-05-03T12:19:28;102923.63;;;15.17;45.50
71772;BME280;59606;52.138;5.424;2023-05-03T12:21:57;102917.19;;;15.24;45.47
71772;BME280;59606;52.138;5.424;2023-05-03T12:24:29;102915.16;;;15.31;45.16
71772;BME280;59606;52.138;5.424;2023-05-03T12:26:59;102914.31;;;15.30;46.15
71772;BME280;59606;52.138;5.424;2023-05-03T12:29:28;102914.06;;;15.37;44.56
71772;BME280;59606;52.138;5.424;2023-05-03T12:32:00;102910.59;;;15.36;43.97
71772;BME280;59606;52.138;5.424;2023-05-03T12:34:29;102899.28;;;15.34;44.98
71772;BME280;59606;52.138;5.424;2023-05-03T12:37:01;102908.22;;;15.30;44.50
71772;BME280;59606;52.138;5.424;2023-05-03T12:39:31;102897.59;;;15.33;43.98
71772;BME280;59606;52.138;5.424;2023-05-03T12:41:59;102898.34;;;15.35;45.16
71772;BME280;59606;52.138;5.424;2023-05-03T12:44:29;102893.66;;;15.43;43.91
71772;BME280;59606;52.138;5.424;2023-05-03T12:47:00;102878.28;;;15.34;44.48
71772;BME280;59606;52.138;5.424;2023-05-03T12:49:27;102879.59;;;15.44;45.01
71772;BME280;59606;52.138;5.424;2023-05-03T12:51:54;102873.94;;;15.53;44.58
71772;BME280;59606;52.138;5.424;2023-05-03T12:54:45;102870.75;;;15.67;43.85
71772;BME280;59606;52.138;5.424;2023-05-03T12:57:29;102873.31;;;15.69;44.95
71772;BME280;59606;52.138;5.424;2023-05-03T12:59:58;102862.66;;;15.72;43.89
71772;BME280;59606;52.138;5.424;2023-05-03T13:02:29;102869.06;;;15.85;44.55
71772;BME280;59606;52.138;5.424;2023-05-03T13:04:58;102860.06;;;15.91;44.24
71772;BME280;59606;52.138;5.424;2023-05-03T13:07:28;102856.88;;;15.84;43.62
71772;BME280;59606;52.138;5.424;2023-05-03T13:09:58;102856.28;;;15.77;42.64
71772;BME280;59606;52.138;5.424;2023-05-03T13:12:28;102846.13;;;15.89;43.29
71772;BME280;59606;52.138;5.424;2023-05-03T13:14:56;102843.59;;;15.87;42.21
71772;BME280;59606;52.138;5.424;2023-05-03T13:17:23;102842.78;;;15.85;42.65
71772;BME280;59606;52.138;5.424;2023-05-03T13:19:49;102831.88;;;15.94;42.99
71772;BME280;59606;52.138;5.424;2023-05-03T13:22:17;102826.47;;;15.97;43.62